createdAt,value
2022-09-09T00:02:02.011Z,0.88
2022-09-09T00:04:32.730Z,0.88
2022-09-09T00:07:29.766Z,1.00
2022-09-09T00:10:31.152Z,0.60
2022-09-09T00:13:24.628Z,0.77
2022-09-09T00:16:24.589Z,0.80
2022-09-09T00:19:22.047Z,0.70
2022-09-09T00:22:26.160Z,0.90
2022-09-09T00:24:56.072Z,1.00
2022-09-09T00:27:51.913Z,0.80
2022-09-09T00:30:21.237Z,1.00
2022-09-09T00:32:50.369Z,1.20
2022-09-09T00:35:24.722Z,1.00
2022-09-09T00:37:57.841Z,0.90
2022-09-09T00:40:46.178Z,1.00
2022-09-09T00:43:28.094Z,1.13
2022-09-09T00:46:38.477Z,1.48
2022-09-09T00:49:31.229Z,1.40
2022-09-09T00:52:19.279Z,1.58
2022-09-09T00:55:08.916Z,1.13
2022-09-09T00:57:37.523Z,1.33
2022-09-09T01:00:34.964Z,1.50
2022-09-09T01:03:14.072Z,1.17
2022-09-09T01:05:52.148Z,1.13
2022-09-09T01:08:42.975Z,1.75
2022-09-09T01:11:22.702Z,1.17
2022-09-09T01:13:59.925Z,1.20
2022-09-09T01:16:30.946Z,1.48
2022-09-09T01:19:00.473Z,1.75
2022-09-09T01:21:48.405Z,1.65
2022-09-09T01:24:43.269Z,1.55
2022-09-09T01:27:20.695Z,1.83
2022-09-09T01:29:47.769Z,1.27
2022-09-09T01:32:47.988Z,1.58
2022-09-09T01:35:49.599Z,2.55
2022-09-09T01:38:18.712Z,1.88
2022-09-09T01:40:47.030Z,1.50
2022-09-09T01:43:14.728Z,1.35
2022-09-09T01:45:44.491Z,1.77
2022-09-09T01:48:11.239Z,1.50
2022-09-09T01:50:46.905Z,1.27
2022-09-09T01:53:17.793Z,1.52
2022-09-09T01:55:51.782Z,1.48
2022-09-09T01:58:51.052Z,1.42
2022-09-09T02:01:39.241Z,1.33
2022-09-09T02:04:35.610Z,1.40
2022-09-09T02:07:11.806Z,1.67
2022-09-09T02:09:41.775Z,1.40
2022-09-09T02:12:15.727Z,1.70
2022-09-09T02:14:56.744Z,1.65
2022-09-09T02:17:34.177Z,1.83
2022-09-09T02:20:15.395Z,1.90
2022-09-09T02:22:54.736Z,1.27
2022-09-09T02:25:27.493Z,1.58
2022-09-09T02:30:31.711Z,1.50
2022-09-09T02:33:03.051Z,1.40
2022-09-09T02:35:47.287Z,1.02
2022-09-09T02:38:18.696Z,1.63
2022-09-09T02:40:56.326Z,1.30
2022-09-09T02:43:24.328Z,1.48
2022-09-09T02:46:37.723Z,1.38
2022-09-09T02:49:12.725Z,1.50
2022-09-09T02:52:08.020Z,0.88
2022-09-09T02:54:39.944Z,1.50
2022-09-09T02:57:18.446Z,1.30
2022-09-09T02:59:47.870Z,0.88
2022-09-09T03:02:14.729Z,1.20
2022-09-09T03:04:45.350Z,0.73
2022-09-09T03:07:13.211Z,1.23
2022-09-09T03:09:41.621Z,1.00
2022-09-09T03:12:08.359Z,1.83
2022-09-09T03:14:35.964Z,0.75
2022-09-09T03:17:03.326Z,1.35
2022-09-09T03:19:36.194Z,1.10
2022-09-09T03:22:05.338Z,1.30
2022-09-09T03:24:34.832Z,1.00
2022-09-09T03:27:04.453Z,1.10
2022-09-09T03:29:31.165Z,1.00
2022-09-09T03:32:00.622Z,2.55
2022-09-09T03:34:28.081Z,1.40
2022-09-09T03:36:56.919Z,1.25
2022-09-09T03:39:23.490Z,1.70
2022-09-09T03:41:50.205Z,1.58
2022-09-09T03:44:16.817Z,1.30
2022-09-09T03:46:43.865Z,1.23
2022-09-09T03:49:11.290Z,1.50
2022-09-09T03:51:39.236Z,1.65
2022-09-09T03:54:09.219Z,1.40
2022-09-09T03:56:36.516Z,1.23
2022-09-09T03:59:04.868Z,1.00
2022-09-09T04:01:31.609Z,1.20
2022-09-09T04:03:59.116Z,1.67
2022-09-09T04:06:26.813Z,1.52
2022-09-09T04:08:53.568Z,1.30
2022-09-09T04:11:21.237Z,1.60
2022-09-09T04:13:50.558Z,1.48
2022-09-09T04:16:18.839Z,1.25
2022-09-09T04:18:45.737Z,1.75
2022-09-09T04:21:14.617Z,1.70
2022-09-09T04:23:41.241Z,1.85
2022-09-09T04:26:08.160Z,1.40
2022-09-09T04:28:37.719Z,1.30
2022-09-09T04:31:24.287Z,1.63
2022-09-09T04:33:54.075Z,1.60
2022-09-09T04:36:21.523Z,1.33
2022-09-09T04:38:50.188Z,1.17
2022-09-09T04:41:17.600Z,1.80
2022-09-09T04:43:46.035Z,1.98
2022-09-09T04:46:14.337Z,1.83
2022-09-09T04:48:41.051Z,1.50
2022-09-09T04:51:13.985Z,1.70
2022-09-09T04:53:41.336Z,1.50
2022-09-09T04:56:15.989Z,1.50
2022-09-09T04:58:50.573Z,1.83
2022-09-09T05:01:22.000Z,2.15
2022-09-09T05:03:50.514Z,1.70
2022-09-09T05:06:22.624Z,1.40
2022-09-09T05:08:53.751Z,1.60
2022-09-09T05:11:30.865Z,1.40
2022-09-09T05:14:16.015Z,1.73
2022-09-09T05:16:45.244Z,1.80
2022-09-09T05:19:12.480Z,1.45
2022-09-09T05:21:45.766Z,1.77
2022-09-09T05:24:13.795Z,1.80
2022-09-09T05:26:41.312Z,1.65
2022-09-09T05:29:09.221Z,1.75
2022-09-09T05:31:36.093Z,2.10
2022-09-09T05:34:08.322Z,1.80
2022-09-09T05:36:35.117Z,1.40
2022-09-09T05:39:02.360Z,2.28
2022-09-09T05:41:32.620Z,2.05
2022-09-09T05:44:02.090Z,2.20
2022-09-09T05:46:28.933Z,1.42
2022-09-09T05:48:56.644Z,1.80
2022-09-09T05:51:33.394Z,1.73
2022-09-09T05:54:05.057Z,1.20
2022-09-09T05:56:35.631Z,1.33
2022-09-09T05:59:02.732Z,1.77
2022-09-09T06:01:35.522Z,1.80
2022-09-09T06:04:03.673Z,1.48
2022-09-09T06:06:37.981Z,1.58
2022-09-09T06:09:11.332Z,1.25
2022-09-09T06:11:41.302Z,2.08
2022-09-09T06:14:09.377Z,1.63
2022-09-09T06:16:38.824Z,1.58
2022-09-09T06:19:11.016Z,1.45
2022-09-09T06:21:38.742Z,1.50
2022-09-09T06:24:11.489Z,1.63
2022-09-09T06:26:43.191Z,1.20
2022-09-09T06:29:17.283Z,1.20
2022-09-09T06:31:44.092Z,1.75
2022-09-09T06:34:15.537Z,1.30
2022-09-09T06:36:47.094Z,1.23
2022-09-09T06:39:15.261Z,1.70
2022-09-09T06:41:43.639Z,1.55
2022-09-09T06:44:33.340Z,1.67
2022-09-09T06:47:03.179Z,1.30
2022-09-09T06:49:29.924Z,1.50
2022-09-09T06:51:56.761Z,0.90
2022-09-09T06:54:24.696Z,1.23
2022-09-09T06:56:51.833Z,0.73
2022-09-09T06:59:23.307Z,1.00
2022-09-09T07:01:56.114Z,1.25
2022-09-09T07:04:23.300Z,1.38
2022-09-09T07:06:50.094Z,1.65
2022-09-09T07:09:21.557Z,1.42
2022-09-09T07:11:53.747Z,1.65
2022-09-09T07:14:23.224Z,1.20
2022-09-09T07:16:59.490Z,1.40
2022-09-09T07:19:27.461Z,1.30
2022-09-09T07:21:55.468Z,0.70
2022-09-09T07:24:24.625Z,1.15
2022-09-09T07:26:52.942Z,0.90
2022-09-09T07:29:20.991Z,1.48
2022-09-09T07:31:49.345Z,1.02
2022-09-09T07:34:20.731Z,1.52
2022-09-09T07:36:47.669Z,0.98
2022-09-09T07:39:15.403Z,1.20
2022-09-09T07:41:49.294Z,1.00
2022-09-09T07:44:28.229Z,0.70
2022-09-09T07:47:02.910Z,1.13
2022-09-09T07:49:35.727Z,0.80
2022-09-09T07:52:04.579Z,0.90
2022-09-09T07:54:33.112Z,0.75
2022-09-09T07:57:01.031Z,0.95
2022-09-09T07:59:30.845Z,1.20
2022-09-09T08:01:59.394Z,1.08
2022-09-09T08:04:29.412Z,1.00
2022-09-09T08:07:00.240Z,1.67
2022-09-09T08:09:33.308Z,1.40
2022-09-09T08:12:16.405Z,0.93
2022-09-09T08:14:43.333Z,1.10
2022-09-09T08:17:09.918Z,1.27
2022-09-09T08:19:37.549Z,1.20
2022-09-09T08:22:09.776Z,1.23
2022-09-09T08:24:39.228Z,1.65
2022-09-09T08:27:06.446Z,0.85
2022-09-09T08:29:33.123Z,0.90
2022-09-09T08:32:00.820Z,1.00
2022-09-09T08:34:29.028Z,1.17
2022-09-09T08:36:57.577Z,1.17
2022-09-09T08:39:31.832Z,1.00
2022-09-09T08:42:18.849Z,0.80
2022-09-09T08:44:57.668Z,1.60
2022-09-09T08:47:55.755Z,0.80
2022-09-09T08:50:30.116Z,0.80
2022-09-09T08:53:22.721Z,1.48
2022-09-09T08:55:56.219Z,0.82
2022-09-09T08:58:33.715Z,0.73
2022-09-09T09:01:27.753Z,0.93
2022-09-09T09:04:07.662Z,0.88
2022-09-09T09:07:32.683Z,0.70
2022-09-09T09:10:40.586Z,1.10
2022-09-09T09:13:44.585Z,1.75
2022-09-09T09:18:45.928Z,0.90
2022-09-09T09:21:39.883Z,1.02
2022-09-09T09:24:21.349Z,0.98
2022-09-09T09:26:49.772Z,1.13
2022-09-09T09:29:20.896Z,0.57
2022-09-09T09:31:55.658Z,0.60
2022-09-09T09:34:25.314Z,0.95
2022-09-09T09:36:57.662Z,0.60
2022-09-09T09:42:24.095Z,1.02
2022-09-09T09:44:53.740Z,0.63
2022-09-09T09:47:24.485Z,0.50
2022-09-09T09:50:03.260Z,0.63
2022-09-09T09:52:37.635Z,0.73
2022-09-09T09:55:14.663Z,1.00
2022-09-09T09:57:42.527Z,0.90
2022-09-09T10:00:18.891Z,0.40
2022-09-09T10:02:53.632Z,0.63
2022-09-09T10:05:36.114Z,0.60
2022-09-09T10:08:10.047Z,0.50
2022-09-09T10:11:20.918Z,0.50
2022-09-09T10:14:27.723Z,0.60
2022-09-09T10:17:41.191Z,0.75
2022-09-09T10:20:10.765Z,0.80
2022-09-09T10:22:44.606Z,0.77
2022-09-09T10:25:52.228Z,0.60
2022-09-09T10:28:49.760Z,0.70
2022-09-09T10:32:11.643Z,0.63
2022-09-09T10:35:12.315Z,0.82
2022-09-09T10:38:05.211Z,0.73
2022-09-09T10:40:41.277Z,0.60
2022-09-09T10:43:36.762Z,0.60
2022-09-09T10:46:53.023Z,0.65
2022-09-09T10:49:56.292Z,0.90
2022-09-09T10:52:51.910Z,0.82
2022-09-09T10:55:23.120Z,0.50
2022-09-09T10:57:55.481Z,0.50
2022-09-09T11:00:32.141Z,0.50
2022-09-09T11:03:05.728Z,0.80
2022-09-09T11:05:50.991Z,0.93
2022-09-09T11:08:25.302Z,0.80
2022-09-09T11:11:05.117Z,0.50
2022-09-09T11:13:52.306Z,0.60
2022-09-09T11:16:27.852Z,0.52
2022-09-09T11:19:25.281Z,0.50
2022-09-09T11:21:55.705Z,0.50
2022-09-09T11:24:44.024Z,0.40
2022-09-09T11:27:22.840Z,0.60
2022-09-09T11:33:52.629Z,0.82
2022-09-09T11:36:46.982Z,0.50
2022-09-09T11:39:31.948Z,0.32
2022-09-09T11:42:13.815Z,0.60
2022-09-09T11:44:42.109Z,0.50
2022-09-09T11:47:30.910Z,0.60
2022-09-09T11:50:15.683Z,0.68
2022-09-09T11:52:48.880Z,0.70
2022-09-09T11:55:34.315Z,0.80
2022-09-09T11:58:06.261Z,0.70
2022-09-09T12:00:38.026Z,0.82
2022-09-09T12:03:45.885Z,0.63
2022-09-09T12:06:34.369Z,0.50
2022-09-09T12:09:26.238Z,0.70
2022-09-09T12:11:53.336Z,0.40
2022-09-09T12:14:45.300Z,0.50
2022-09-09T12:17:21.571Z,0.60
2022-09-09T12:19:49.099Z,0.70
2022-09-09T12:22:31.783Z,0.45
2022-09-09T12:25:21.391Z,0.60
2022-09-09T12:28:16.054Z,0.28
2022-09-09T12:30:57.598Z,0.50
2022-09-09T12:33:25.380Z,0.32
2022-09-09T12:35:59.179Z,0.45
2022-09-09T12:38:41.485Z,0.50
2022-09-09T12:41:21.840Z,0.60
2022-09-09T12:43:48.632Z,0.30
2022-09-09T12:46:23.363Z,0.60
2022-09-09T12:48:50.250Z,0.50
2022-09-09T12:51:26.063Z,0.28
2022-09-09T12:53:53.185Z,0.38
2022-09-09T12:56:30.033Z,0.50
2022-09-09T12:58:59.569Z,0.70
2022-09-09T13:01:30.464Z,0.43
2022-09-09T13:03:58.025Z,0.30
2022-09-09T13:06:30.043Z,0.55
2022-09-09T13:09:02.541Z,0.52
2022-09-09T13:11:44.225Z,0.35
2022-09-09T13:14:30.292Z,0.30
2022-09-09T13:17:04.154Z,0.40
2022-09-09T13:19:36.328Z,1.00
2022-09-09T13:22:39.775Z,0.60
2022-09-09T13:25:12.720Z,0.40
2022-09-09T13:27:43.640Z,0.82
2022-09-09T13:30:41.125Z,0.68
2022-09-09T13:33:14.015Z,0.60
2022-09-09T13:36:00.496Z,0.60
2022-09-09T13:38:30.126Z,0.50
2022-09-09T13:41:01.961Z,0.60
2022-09-09T13:43:31.067Z,0.85
2022-09-09T13:46:25.301Z,0.68
2022-09-09T13:49:19.582Z,0.50
2022-09-09T13:51:51.599Z,0.75
2022-09-09T13:54:21.455Z,1.00
2022-09-09T13:56:48.245Z,0.30
2022-09-09T13:59:22.672Z,0.80
2022-09-09T14:01:53.306Z,0.70
2022-09-09T14:04:23.676Z,0.50
2022-09-09T14:06:51.548Z,0.98
2022-09-09T14:09:19.164Z,0.55
2022-09-09T14:11:49.291Z,0.50
2022-09-09T14:14:15.982Z,0.63
2022-09-09T14:16:42.619Z,0.30
2022-09-09T14:19:10.657Z,0.55
2022-09-09T14:21:37.295Z,0.90
2022-09-09T14:24:04.058Z,0.50
2022-09-09T14:26:31.102Z,0.60
2022-09-09T14:28:58.155Z,0.50
2022-09-09T14:31:25.710Z,0.30
2022-09-09T14:33:53.478Z,0.13
2022-09-09T14:36:20.256Z,0.20
2022-09-09T14:38:47.401Z,0.20
2022-09-09T14:41:20.684Z,0.20
2022-09-09T14:43:47.554Z,0.20
2022-09-09T14:46:17.667Z,1.13
2022-09-09T14:48:46.052Z,0.80
2022-09-09T14:51:20.473Z,0.30
2022-09-09T14:53:47.836Z,0.17
2022-09-09T14:56:18.790Z,0.80
2022-09-09T14:58:45.765Z,0.47
2022-09-09T15:01:15.931Z,0.93
2022-09-09T15:03:49.674Z,0.35
2022-09-09T15:06:16.312Z,0.50
2022-09-09T15:08:45.153Z,0.60
2022-09-09T15:11:14.481Z,0.40
2022-09-09T15:13:43.457Z,0.35
2022-09-09T15:16:14.524Z,0.50
2022-09-09T15:18:45.871Z,0.82
2022-09-09T15:21:19.964Z,0.75
2022-09-09T15:23:48.450Z,0.70
2022-09-09T15:26:16.066Z,0.68
2022-09-09T15:28:44.613Z,0.70
2022-09-09T15:31:29.132Z,0.60
2022-09-09T15:34:03.402Z,0.65
2022-09-09T15:36:34.185Z,0.50
2022-09-09T15:39:02.736Z,0.60
2022-09-09T15:41:30.883Z,0.80
2022-09-09T15:43:58.088Z,0.90
2022-09-09T15:46:39.828Z,0.60
2022-09-09T15:49:11.893Z,0.50
2022-09-09T15:51:44.571Z,1.20
2022-09-09T15:54:16.100Z,1.10
2022-09-09T15:56:43.384Z,0.43
2022-09-09T15:59:10.412Z,0.30
2022-09-09T16:01:37.351Z,0.00
2022-09-09T16:04:04.805Z,0.20
2022-09-09T16:06:32.128Z,0.00
2022-09-09T16:09:01.855Z,0.00
2022-09-09T16:11:32.900Z,0.00
2022-09-09T16:14:00.291Z,0.60
2022-09-09T16:16:30.597Z,0.00
2022-09-09T16:19:07.697Z,0.00
2022-09-09T16:21:38.638Z,0.00
2022-09-09T16:24:08.098Z,0.00
2022-09-09T16:26:37.643Z,0.00
2022-09-09T16:29:05.183Z,0.00
2022-09-09T16:31:33.348Z,0.00
2022-09-09T16:34:00.194Z,0.00
2022-09-09T16:36:32.201Z,0.00
2022-09-09T16:39:01.939Z,0.00
2022-09-09T16:41:29.885Z,0.00
2022-09-09T16:44:08.447Z,0.00
2022-09-09T16:46:42.644Z,0.00
2022-09-09T16:49:13.077Z,0.00
2022-09-09T16:51:48.005Z,0.00
2022-09-09T16:54:17.009Z,0.00
2022-09-09T16:56:47.839Z,0.00
2022-09-09T16:59:17.935Z,0.00
2022-09-09T17:01:47.449Z,0.00
2022-09-09T17:04:21.194Z,0.00
2022-09-09T17:06:53.907Z,0.00
2022-09-09T17:09:23.376Z,0.00
2022-09-09T17:11:53.010Z,0.00
2022-09-09T17:14:21.800Z,0.00
2022-09-09T17:16:48.842Z,0.00
2022-09-09T17:19:15.929Z,0.00
2022-09-09T17:22:00.444Z,0.00
2022-09-09T17:24:30.025Z,0.00
2022-09-09T17:26:57.160Z,0.00
2022-09-09T17:29:23.757Z,0.00
2022-09-09T17:31:50.352Z,0.00
2022-09-09T17:34:16.976Z,0.00
2022-09-09T17:36:43.562Z,0.00
2022-09-09T17:39:10.254Z,0.00
2022-09-09T17:41:39.943Z,0.00
2022-09-09T17:46:43.022Z,0.00
2022-09-09T17:49:16.371Z,0.00
2022-09-09T17:51:44.442Z,0.00
2022-09-09T17:54:15.972Z,0.00
2022-09-09T17:56:43.321Z,0.00
2022-09-09T17:59:13.298Z,0.00
2022-09-09T18:01:47.493Z,0.00
2022-09-09T18:04:16.661Z,0.00
2022-09-09T18:06:47.192Z,0.00
2022-09-09T18:09:21.166Z,0.00
2022-09-09T18:11:52.070Z,0.00
2022-09-09T18:14:25.474Z,0.00
2022-09-09T18:16:52.768Z,0.00
2022-09-09T18:19:23.244Z,0.00
2022-09-09T18:21:50.904Z,0.00
2022-09-09T18:24:20.818Z,0.00
2022-09-09T18:26:49.703Z,0.00
2022-09-09T18:29:25.050Z,0.00
2022-09-09T18:31:53.520Z,0.00
2022-09-09T18:34:22.674Z,0.00
2022-09-09T18:36:53.761Z,0.00
2022-09-09T18:39:23.378Z,0.00
2022-09-09T18:41:53.762Z,0.00
2022-09-09T18:44:28.634Z,0.00
2022-09-09T18:46:55.403Z,0.00
2022-09-09T18:49:24.457Z,0.00
2022-09-09T18:51:51.145Z,0.00
2022-09-09T18:54:24.550Z,0.00
2022-09-09T18:56:52.901Z,0.00
2022-09-09T18:59:23.617Z,0.00
2022-09-09T19:01:52.712Z,0.00
2022-09-09T19:04:22.161Z,0.00
2022-09-09T19:06:49.492Z,0.00
2022-09-09T19:09:18.610Z,0.00
2022-09-09T19:11:46.228Z,0.00
2022-09-09T19:14:15.689Z,0.20
2022-09-09T19:16:42.664Z,0.00
2022-09-09T19:19:14.405Z,0.00
2022-09-09T19:21:42.030Z,0.00
2022-09-09T19:24:20.702Z,0.00
2022-09-09T19:26:52.103Z,0.00
2022-09-09T19:29:24.775Z,0.00
2022-09-09T19:32:36.345Z,0.00
2022-09-09T19:34:41.696Z,0.00
2022-09-09T19:37:08.290Z,0.00
2022-09-09T19:39:35.044Z,0.00
2022-09-09T19:42:01.916Z,0.00
2022-09-09T19:44:29.286Z,0.00
2022-09-09T19:46:55.899Z,0.00
2022-09-09T19:49:22.646Z,0.00
2022-09-09T19:51:50.883Z,0.00
2022-09-09T19:54:17.499Z,0.00
2022-09-09T19:56:44.514Z,0.00
2022-09-09T19:59:13.077Z,0.00
2022-09-09T20:01:44.999Z,0.00
2022-09-09T20:04:12.960Z,0.00
2022-09-09T20:06:43.760Z,0.00
2022-09-09T20:09:17.057Z,0.00
2022-09-09T20:11:45.781Z,0.00
2022-09-09T20:14:13.312Z,0.00
2022-09-09T20:16:40.555Z,0.00
2022-09-09T20:19:11.247Z,0.00
2022-09-09T20:21:47.233Z,0.00
2022-09-09T20:24:18.587Z,0.00
2022-09-09T20:26:48.218Z,0.00
2022-09-09T20:29:19.062Z,0.00
2022-09-09T20:31:46.006Z,0.00
2022-09-09T20:34:22.108Z,0.00
2022-09-09T20:36:50.258Z,0.00
2022-09-09T20:39:20.496Z,0.00
2022-09-09T20:41:47.821Z,0.00
2022-09-09T20:44:22.726Z,0.00
2022-09-09T20:46:52.575Z,0.00
2022-09-09T20:49:22.374Z,0.00
2022-09-09T20:51:50.716Z,0.00
2022-09-09T20:54:21.953Z,0.00
2022-09-09T20:56:50.302Z,0.00
2022-09-09T20:59:26.603Z,0.00
2022-09-09T21:01:54.820Z,0.00
2022-09-09T21:04:22.881Z,0.00
2022-09-09T21:06:51.656Z,0.00
2022-09-09T21:09:19.261Z,0.00
2022-09-09T21:11:47.088Z,0.00
2022-09-09T21:14:13.733Z,0.00
2022-09-09T21:16:40.402Z,0.00
2022-09-09T21:19:06.996Z,0.00
2022-09-09T21:21:33.600Z,0.00
2022-09-09T21:24:00.555Z,0.00
2022-09-09T21:26:27.767Z,0.00
2022-09-09T21:28:55.818Z,0.00
2022-09-09T21:31:27.938Z,0.00
2022-09-09T21:33:57.563Z,0.00
2022-09-09T21:36:25.377Z,0.00
2022-09-09T21:38:51.989Z,0.00
2022-09-09T21:41:19.137Z,0.00
2022-09-09T21:43:51.247Z,0.00
2022-09-09T21:46:18.069Z,0.00
2022-09-09T21:48:44.895Z,0.00
2022-09-09T21:51:16.714Z,0.00
2022-09-09T21:53:44.030Z,0.00
2022-09-09T21:56:15.053Z,0.00
2022-09-09T21:58:42.523Z,0.00
2022-09-09T22:01:18.154Z,0.00
2022-09-09T22:06:15.568Z,0.00
2022-09-09T22:08:43.043Z,0.00
2022-09-09T22:11:14.500Z,0.00
2022-09-09T22:13:42.521Z,0.00
2022-09-09T22:16:12.239Z,0.00
2022-09-09T22:18:39.700Z,0.00
2022-09-09T22:21:13.758Z,0.00
2022-09-09T22:23:40.763Z,0.00
2022-09-09T22:26:08.321Z,0.00
2022-09-09T22:28:35.724Z,0.00
2022-09-09T22:31:02.345Z,0.00
2022-09-09T22:33:29.401Z,0.00
2022-09-09T22:35:56.230Z,0.00
2022-09-09T22:38:23.037Z,0.00
2022-09-09T22:40:49.881Z,0.00
2022-09-09T22:43:20.293Z,0.00
2022-09-09T22:45:48.001Z,0.00
2022-09-09T22:48:15.384Z,0.00
2022-09-09T22:50:42.665Z,0.00
2022-09-09T22:53:13.668Z,0.00
2022-09-09T22:55:40.912Z,0.00
2022-09-09T22:58:07.907Z,0.00
2022-09-09T23:00:35.114Z,0.00
2022-09-09T23:03:01.671Z,0.00
2022-09-09T23:05:28.371Z,0.00
2022-09-09T23:07:58.163Z,0.00
2022-09-09T23:10:25.311Z,0.00
2022-09-09T23:12:52.310Z,0.00
2022-09-09T23:15:19.768Z,0.00
2022-09-09T23:17:46.422Z,0.00
2022-09-09T23:20:13.067Z,0.00
2022-09-09T23:22:40.399Z,0.00
2022-09-09T23:25:07.771Z,0.00
2022-09-09T23:27:38.481Z,0.00
2022-09-09T23:30:07.092Z,0.00
2022-09-09T23:32:34.155Z,0.00
2022-09-09T23:35:00.722Z,0.00
2022-09-09T23:37:27.273Z,0.00
2022-09-09T23:39:53.871Z,0.00
2022-09-09T23:42:20.611Z,0.00
2022-09-09T23:44:47.250Z,0.00
2022-09-09T23:47:13.869Z,0.17
2022-09-09T23:49:40.498Z,0.00
2022-09-09T23:52:07.095Z,0.00
2022-09-09T23:54:34.934Z,0.00
2022-09-09T23:57:03.243Z,0.00
2022-09-09T23:59:31.562Z,0.00
